Terminal Aerodrome Forecast
Issued by NWS

Home | Current Version | Previous Version | Text Only | Print | Product List | Glossary On
Versions: 1 2 3 4 5 6 7 8 9 10 11 12 13 14
144
FTUS42 KTBW 250539
TAFLAL
TAF
KLAL 250539Z 2506/2606 VRB03KT P6SM SCT060
      TEMPO 2509/2513 4SM BR SCT005
     FM251400 16006KT P6SM SCT020
     FM251700 18007KT P6SM SCT040
     FM252000 22007KT P6SM BKN050
     FM260100 VRB03KT P6SM SCT060
      AMD NOT SKED TIL 251200=

USA.gov is the U.S. government's official web portal to all federal, state and local government web resources and services.